createdAt,value
2022-12-05T00:02:33.457Z,10.05
2022-12-05T00:05:21.548Z,10.60
2022-12-05T00:08:09.396Z,9.73
2022-12-05T00:10:57.101Z,10.45
2022-12-05T00:13:45.947Z,10.15
2022-12-05T00:16:34.780Z,10.52
2022-12-05T00:19:24.166Z,9.73
2022-12-05T00:22:11.992Z,9.93
2022-12-05T00:25:01.167Z,9.80
2022-12-05T00:27:49.005Z,10.45
2022-12-05T00:30:37.057Z,9.48
2022-12-05T00:33:25.029Z,10.48
2022-12-05T00:36:17.937Z,10.60
2022-12-05T00:39:09.559Z,10.18
2022-12-05T00:41:57.558Z,10.05
2022-12-05T00:44:45.355Z,9.85
2022-12-05T00:47:35.480Z,9.82
2022-12-05T00:50:23.590Z,9.80
2022-12-05T00:53:16.070Z,10.73
2022-12-05T00:56:05.067Z,10.53
2022-12-05T00:58:54.674Z,9.32
2022-12-05T01:01:44.501Z,10.05
2022-12-05T01:04:32.563Z,10.60
2022-12-05T01:07:20.783Z,12.20
2022-12-05T01:10:12.066Z,9.30
2022-12-05T01:13:02.174Z,9.57
2022-12-05T01:15:50.561Z,9.73
2022-12-05T01:18:38.216Z,10.07
2022-12-05T01:21:26.652Z,11.85
2022-12-05T01:24:14.904Z,12.02
2022-12-05T01:27:04.534Z,12.00
2022-12-05T01:29:52.795Z,10.40
2022-12-05T01:32:40.589Z,9.73
2022-12-05T01:35:28.441Z,9.50
2022-12-05T01:38:17.603Z,13.07
2022-12-05T01:41:07.535Z,9.45
2022-12-05T01:44:02.072Z,10.10
2022-12-05T01:46:51.938Z,9.25
2022-12-05T01:49:43.446Z,8.85
2022-12-05T01:52:33.153Z,11.75
2022-12-05T01:55:21.578Z,9.65
2022-12-05T01:58:11.066Z,11.10
2022-12-05T02:01:00.725Z,13.50
2022-12-05T02:03:51.660Z,12.85
2022-12-05T02:06:39.940Z,9.48
2022-12-05T02:09:28.339Z,9.93
2022-12-05T02:12:16.316Z,10.02
2022-12-05T02:15:19.747Z,11.85
2022-12-05T02:18:22.450Z,11.60
2022-12-05T02:21:30.118Z,12.75
2022-12-05T02:24:45.724Z,10.45
2022-12-05T02:27:58.332Z,10.32
2022-12-05T02:30:53.938Z,15.00
2022-12-05T02:33:48.547Z,12.15
2022-12-05T02:36:44.774Z,11.25
2022-12-05T02:39:42.301Z,12.48
2022-12-05T02:42:33.985Z,11.50
2022-12-05T02:45:27.275Z,11.90
2022-12-05T02:51:08.541Z,13.40
2022-12-05T02:53:59.444Z,10.93
2022-12-05T02:56:49.467Z,11.82
2022-12-05T02:59:38.291Z,12.50
2022-12-05T03:02:32.267Z,12.02
2022-12-05T03:05:28.571Z,13.18
2022-12-05T03:08:22.112Z,12.55
2022-12-05T03:11:10.575Z,11.00
2022-12-05T03:14:02.300Z,11.55
2022-12-05T03:16:52.897Z,11.27
2022-12-05T03:19:48.176Z,10.60
2022-12-05T03:22:44.982Z,10.43
2022-12-05T03:25:41.336Z,11.13
2022-12-05T03:28:38.054Z,10.80
2022-12-05T03:31:34.759Z,10.07
2022-12-05T03:34:30.870Z,10.73
2022-12-05T03:37:26.310Z,10.73
2022-12-05T03:40:27.491Z,9.82
2022-12-05T03:43:23.501Z,9.77
2022-12-05T03:46:17.820Z,10.50
2022-12-05T03:49:14.481Z,8.93
2022-12-05T03:52:09.413Z,9.57
2022-12-05T03:54:59.227Z,9.63
2022-12-05T03:57:55.632Z,8.73
2022-12-05T04:00:47.561Z,8.88
2022-12-05T04:03:41.776Z,10.43
2022-12-05T04:06:34.408Z,9.82
2022-12-05T04:09:27.633Z,11.50
2022-12-05T04:12:20.573Z,11.07
2022-12-05T04:15:18.383Z,9.55
2022-12-05T04:18:06.344Z,9.40
2022-12-05T04:21:13.976Z,9.00
2022-12-05T04:24:19.405Z,9.50
2022-12-05T04:27:24.059Z,8.65
2022-12-05T04:30:17.239Z,8.75
2022-12-05T04:33:09.568Z,8.95
2022-12-05T04:36:03.955Z,8.43
2022-12-05T04:38:56.291Z,8.85
2022-12-05T04:41:50.555Z,9.73
2022-12-05T04:44:43.129Z,9.60
2022-12-05T04:47:37.299Z,8.38
2022-12-05T04:50:28.921Z,8.00
2022-12-05T04:53:19.511Z,7.38
2022-12-05T04:56:08.536Z,8.55
2022-12-05T04:58:56.754Z,7.75
2022-12-05T05:01:49.658Z,7.78
2022-12-05T05:04:42.236Z,7.82
2022-12-05T05:07:31.419Z,7.38
2022-12-05T05:10:25.977Z,7.05
2022-12-05T05:13:13.908Z,7.20
2022-12-05T05:16:02.029Z,6.53
2022-12-05T05:18:51.533Z,6.57
2022-12-05T05:21:42.539Z,6.05
2022-12-05T05:24:30.178Z,5.80
2022-12-05T05:27:18.256Z,5.65
2022-12-05T05:30:07.745Z,5.70
2022-12-05T05:32:55.694Z,5.90
2022-12-05T05:35:43.529Z,5.38
2022-12-05T05:38:32.905Z,4.82
2022-12-05T05:41:23.434Z,5.15
2022-12-05T05:44:11.273Z,5.05
2022-12-05T05:46:59.459Z,5.10
2022-12-05T05:49:47.302Z,4.70
2022-12-05T05:52:35.861Z,5.00
2022-12-05T05:55:25.071Z,5.53
2022-12-05T05:58:13.040Z,5.25
2022-12-05T06:01:05.845Z,5.22
2022-12-05T06:03:54.272Z,5.38
2022-12-05T06:06:42.543Z,4.80
2022-12-05T06:09:30.356Z,4.22
2022-12-05T06:12:19.972Z,5.00
2022-12-05T06:15:09.346Z,6.22
2022-12-05T06:18:01.175Z,4.60
2022-12-05T06:20:59.936Z,4.95
2022-12-05T06:23:48.124Z,5.35
2022-12-05T06:26:36.108Z,4.80
2022-12-05T06:29:32.388Z,5.28
2022-12-05T06:32:22.007Z,5.38
2022-12-05T06:35:15.690Z,5.90
2022-12-05T06:38:03.801Z,5.25
2022-12-05T06:40:54.238Z,5.38
2022-12-05T06:43:42.145Z,5.43
2022-12-05T06:46:31.779Z,5.80
2022-12-05T06:49:19.970Z,5.82
2022-12-05T06:52:07.715Z,7.65
2022-12-05T06:54:55.790Z,7.70
2022-12-05T06:57:43.911Z,7.32
2022-12-05T07:00:49.396Z,7.00
2022-12-05T07:03:43.962Z,6.70
2022-12-05T07:06:31.849Z,7.50
2022-12-05T07:09:21.253Z,6.38
2022-12-05T07:12:09.471Z,7.28
2022-12-05T07:14:57.334Z,8.40
2022-12-05T07:17:45.344Z,7.28
2022-12-05T07:21:03.530Z,9.68
2022-12-05T07:23:44.396Z,10.07
2022-12-05T07:26:32.165Z,9.10
2022-12-05T07:29:20.289Z,9.13
2022-12-05T07:32:08.637Z,9.90
2022-12-05T07:34:56.366Z,9.15
2022-12-05T07:37:45.725Z,10.23
2022-12-05T07:40:33.956Z,10.70
2022-12-05T07:43:21.994Z,9.43
2022-12-05T07:46:12.503Z,10.73
2022-12-05T07:49:00.537Z,10.07
2022-12-05T07:51:48.276Z,8.45
2022-12-05T07:54:37.588Z,9.68
2022-12-05T07:57:25.514Z,10.23
2022-12-05T08:00:16.234Z,11.40
2022-12-05T08:03:04.589Z,9.45
2022-12-05T08:05:52.848Z,9.82
2022-12-05T08:08:41.430Z,8.45
2022-12-05T08:11:38.260Z,10.00
2022-12-05T08:14:26.548Z,11.55
2022-12-05T08:17:14.643Z,9.32
2022-12-05T08:20:02.994Z,10.05
2022-12-05T08:22:54.364Z,10.10
2022-12-05T08:25:42.279Z,10.30
2022-12-05T08:28:32.171Z,11.35
2022-12-05T08:31:24.251Z,9.63
2022-12-05T08:34:14.316Z,11.53
2022-12-05T08:37:02.207Z,11.35
2022-12-05T08:39:50.555Z,9.60
2022-12-05T08:42:38.261Z,10.57
2022-12-05T08:45:27.839Z,11.38
2022-12-05T08:48:15.909Z,11.48
2022-12-05T08:51:08.470Z,9.77
2022-12-05T08:53:57.412Z,11.05
2022-12-05T08:56:45.665Z,9.50
2022-12-05T08:59:33.607Z,10.60
2022-12-05T09:02:22.832Z,11.13
2022-12-05T09:05:27.135Z,10.13
2022-12-05T09:08:16.743Z,10.35
2022-12-05T09:11:07.922Z,11.73
2022-12-05T09:13:58.110Z,9.02
2022-12-05T09:16:47.890Z,10.20
2022-12-05T09:19:36.920Z,8.88
2022-12-05T09:22:24.829Z,11.50
2022-12-05T09:25:12.773Z,10.65
2022-12-05T09:28:01.277Z,10.85
2022-12-05T09:30:58.375Z,9.80
2022-12-05T09:33:47.259Z,9.63
2022-12-05T09:36:37.004Z,9.13
2022-12-05T09:39:25.583Z,10.65
2022-12-05T09:42:39.559Z,10.18
2022-12-05T09:45:32.297Z,10.60
2022-12-05T09:48:23.920Z,10.10
2022-12-05T09:51:13.348Z,9.93
2022-12-05T09:54:04.210Z,10.40
2022-12-05T09:56:53.389Z,9.25
2022-12-05T09:59:41.517Z,10.10
2022-12-05T10:02:42.774Z,9.70
2022-12-05T10:05:41.240Z,8.63
2022-12-05T10:08:34.884Z,10.20
2022-12-05T10:11:33.013Z,9.07
2022-12-05T10:14:32.400Z,10.60
2022-12-05T10:17:28.088Z,9.77
2022-12-05T10:20:21.483Z,10.98
2022-12-05T10:23:34.612Z,9.98
2022-12-05T10:26:31.419Z,9.73
2022-12-05T10:29:28.217Z,10.48
2022-12-05T10:32:19.843Z,10.60
2022-12-05T10:35:18.833Z,9.25
2022-12-05T10:38:11.904Z,9.55
2022-12-05T10:41:05.045Z,9.23
2022-12-05T10:43:55.605Z,9.55
2022-12-05T10:50:13.862Z,10.20
2022-12-05T10:53:05.296Z,9.07
2022-12-05T10:59:04.271Z,10.27
2022-12-05T11:01:55.151Z,10.57
2022-12-05T11:04:46.405Z,10.25
2022-12-05T11:07:37.477Z,11.07
2022-12-05T11:10:31.954Z,11.70
2022-12-05T11:16:34.090Z,9.75
2022-12-05T11:19:28.446Z,10.20
2022-12-05T11:22:23.329Z,12.15
2022-12-05T11:25:26.474Z,10.77
2022-12-05T11:28:41.724Z,10.80
2022-12-05T11:31:33.156Z,10.77
2022-12-05T11:34:25.931Z,10.25
2022-12-05T11:37:21.847Z,10.23
2022-12-05T11:40:18.123Z,11.63
2022-12-05T11:43:28.517Z,9.32
2022-12-05T11:46:28.428Z,10.63
2022-12-05T11:49:45.675Z,9.30
2022-12-05T11:52:48.029Z,9.45
2022-12-05T11:55:42.366Z,9.70
2022-12-05T11:58:53.627Z,10.95
2022-12-05T12:01:55.716Z,10.43
2022-12-05T12:04:55.310Z,9.38
2022-12-05T12:08:02.450Z,8.65
2022-12-05T12:10:57.447Z,9.93
2022-12-05T12:13:59.971Z,9.55
2022-12-05T12:16:59.370Z,9.60
2022-12-05T12:20:12.780Z,9.65
2022-12-05T12:26:07.731Z,9.20
2022-12-05T12:29:08.163Z,8.80
2022-12-05T12:32:11.014Z,8.18
2022-12-05T12:35:37.635Z,8.07
2022-12-05T12:38:51.326Z,8.48
2022-12-05T12:41:56.430Z,9.25
2022-12-05T12:45:21.089Z,8.65
2022-12-05T12:48:29.181Z,7.38
2022-12-05T12:51:19.709Z,7.95
2022-12-05T12:55:02.138Z,9.02
2022-12-05T12:57:59.123Z,7.53
2022-12-05T13:01:00.600Z,8.70
2022-12-05T13:03:53.341Z,8.98
2022-12-05T13:06:51.661Z,8.68
2022-12-05T13:09:50.299Z,8.85
2022-12-05T13:12:42.146Z,7.97
2022-12-05T13:15:37.243Z,8.80
2022-12-05T13:18:26.828Z,8.00
2022-12-05T13:21:15.263Z,8.88
2022-12-05T13:24:05.249Z,7.57
2022-12-05T13:26:58.591Z,8.93
2022-12-05T13:32:42.515Z,9.30
2022-12-05T13:35:51.357Z,7.60
2022-12-05T13:38:59.247Z,8.45
2022-12-05T13:42:07.528Z,8.15
2022-12-05T13:45:06.835Z,9.48
2022-12-05T13:48:04.911Z,7.90
2022-12-05T13:50:57.584Z,7.43
2022-12-05T13:53:49.308Z,10.52
2022-12-05T13:56:52.946Z,7.85
2022-12-05T14:00:05.171Z,7.60
2022-12-05T14:02:55.384Z,7.57
2022-12-05T14:05:48.925Z,7.53
2022-12-05T14:08:54.182Z,6.85
2022-12-05T14:12:02.961Z,7.22
2022-12-05T14:15:06.006Z,8.77
2022-12-05T14:18:00.930Z,6.97
2022-12-05T14:21:02.456Z,6.78
2022-12-05T14:24:03.300Z,6.38
2022-12-05T14:27:07.604Z,6.43
2022-12-05T14:30:04.141Z,7.50
2022-12-05T14:32:55.294Z,6.78
2022-12-05T14:35:46.262Z,7.53
2022-12-05T14:38:36.617Z,8.25
2022-12-05T14:41:31.787Z,7.38
2022-12-05T14:44:21.364Z,8.10
2022-12-05T14:47:18.900Z,7.55
2022-12-05T14:50:35.092Z,7.88
2022-12-05T14:53:38.748Z,7.40
2022-12-05T14:56:28.320Z,8.05
2022-12-05T14:59:26.591Z,7.25
2022-12-05T15:02:23.195Z,7.88
2022-12-05T15:05:23.266Z,7.22
2022-12-05T15:08:16.904Z,7.80
2022-12-05T15:11:05.287Z,6.97
2022-12-05T15:13:54.110Z,7.25
2022-12-05T15:17:28.145Z,7.20
2022-12-05T15:20:40.297Z,8.73
2022-12-05T15:23:48.044Z,6.97
2022-12-05T15:26:48.954Z,8.80
2022-12-05T15:29:38.077Z,7.30
2022-12-05T15:32:28.800Z,7.45
2022-12-05T15:35:17.721Z,13.93
2022-12-05T15:38:15.220Z,12.48
2022-12-05T15:41:07.031Z,11.63
2022-12-05T15:43:58.031Z,10.25
2022-12-05T15:46:46.090Z,8.15
2022-12-05T15:49:33.941Z,8.45
2022-12-05T15:52:31.859Z,8.10
2022-12-05T15:55:25.619Z,7.80
2022-12-05T15:58:21.487Z,8.13
2022-12-05T16:01:15.747Z,7.55
2022-12-05T16:04:09.795Z,8.27
2022-12-05T16:07:00.631Z,8.05
2022-12-05T16:09:49.003Z,7.72
2022-12-05T16:12:41.052Z,7.68
2022-12-05T16:15:30.403Z,7.75
2022-12-05T16:18:28.017Z,7.30
2022-12-05T16:21:37.446Z,7.95
2022-12-05T16:24:31.252Z,6.68
2022-12-05T16:27:24.553Z,7.38
2022-12-05T16:30:20.234Z,7.20
2022-12-05T16:33:16.451Z,7.20
2022-12-05T16:36:10.337Z,7.32
2022-12-05T16:39:03.550Z,6.80
2022-12-05T16:41:52.407Z,7.32
2022-12-05T16:45:03.448Z,6.25
2022-12-05T16:47:56.436Z,7.15
2022-12-05T16:50:46.070Z,6.22
2022-12-05T16:53:34.846Z,6.40
2022-12-05T16:56:25.847Z,6.22
2022-12-05T16:59:25.098Z,6.55
2022-12-05T17:02:16.687Z,6.55
2022-12-05T17:05:07.913Z,6.25
2022-12-05T17:07:57.430Z,6.55
2022-12-05T17:11:28.341Z,6.55
2022-12-05T17:14:20.060Z,6.50
2022-12-05T17:17:14.345Z,6.40
2022-12-05T17:20:02.342Z,6.47
2022-12-05T17:22:50.664Z,5.97
2022-12-05T17:25:43.032Z,6.65
2022-12-05T17:28:31.123Z,6.45
2022-12-05T17:31:22.838Z,6.28
2022-12-05T17:34:19.519Z,6.30
2022-12-05T17:37:07.267Z,6.50
2022-12-05T17:39:55.428Z,6.63
2022-12-05T17:42:44.778Z,5.93
2022-12-05T17:45:33.428Z,6.35
2022-12-05T17:48:23.338Z,6.50
2022-12-05T17:51:14.331Z,6.07
2022-12-05T17:54:02.540Z,6.47
2022-12-05T17:56:50.309Z,6.07
2022-12-05T17:59:39.597Z,8.05
2022-12-05T18:02:27.680Z,7.32
2022-12-05T18:05:17.004Z,8.68
2022-12-05T18:08:05.043Z,8.35
2022-12-05T18:10:53.427Z,7.35
2022-12-05T18:13:41.247Z,7.32
2022-12-05T18:16:30.602Z,7.72
2022-12-05T18:19:18.563Z,7.13
2022-12-05T18:22:07.237Z,7.93
2022-12-05T18:24:55.492Z,7.80
2022-12-05T18:27:43.618Z,7.32
2022-12-05T18:30:31.783Z,7.75
2022-12-05T18:33:21.141Z,7.95
2022-12-05T18:36:11.413Z,8.18
2022-12-05T18:38:59.649Z,9.48
2022-12-05T18:41:47.651Z,7.22
2022-12-05T18:44:35.915Z,7.95
2022-12-05T18:47:26.975Z,7.70
2022-12-05T18:50:17.605Z,7.63
2022-12-05T18:53:06.032Z,7.40
2022-12-05T18:56:23.733Z,7.35
2022-12-05T18:59:03.974Z,7.15
2022-12-05T19:01:55.834Z,7.80
2022-12-05T19:04:44.554Z,7.38
2022-12-05T19:07:34.284Z,7.38
2022-12-05T19:10:22.683Z,6.90
2022-12-05T19:13:17.559Z,7.15
2022-12-05T19:16:06.949Z,6.70
2022-12-05T19:19:02.650Z,6.25
2022-12-05T19:21:50.640Z,6.90
2022-12-05T19:24:40.129Z,6.38
2022-12-05T19:27:27.937Z,6.93
2022-12-05T19:30:16.264Z,6.40
2022-12-05T19:33:04.199Z,6.63
2022-12-05T19:35:52.329Z,5.63
2022-12-05T19:38:41.814Z,7.07
2022-12-05T19:41:32.316Z,6.78
2022-12-05T19:44:20.187Z,9.23
2022-12-05T19:47:08.009Z,6.97
2022-12-05T19:49:59.147Z,7.50
2022-12-05T19:52:47.376Z,6.78
2022-12-05T19:55:35.546Z,6.03
2022-12-05T19:58:26.485Z,8.00
2022-12-05T20:01:21.146Z,7.30
2022-12-05T20:04:10.791Z,8.30
2022-12-05T20:06:58.599Z,7.78
2022-12-05T20:09:46.888Z,7.93
2022-12-05T20:12:34.798Z,8.10
2022-12-05T20:15:24.256Z,6.72
2022-12-05T20:18:14.750Z,7.13
2022-12-05T20:21:04.025Z,7.78
2022-12-05T20:23:55.011Z,9.18
2022-12-05T20:26:45.939Z,8.60
2022-12-05T20:29:34.015Z,7.38
2022-12-05T20:32:23.483Z,9.10
2022-12-05T20:35:11.814Z,8.98
2022-12-05T20:37:59.746Z,10.85
2022-12-05T20:40:47.861Z,9.32
2022-12-05T20:43:36.740Z,9.70
2022-12-05T20:46:25.392Z,8.32
2022-12-05T20:49:15.692Z,8.60
2022-12-05T20:52:05.966Z,9.25
2022-12-05T20:54:53.794Z,8.45
2022-12-05T20:57:42.112Z,9.15
2022-12-05T21:00:30.455Z,8.52
2022-12-05T21:03:18.602Z,8.25
2022-12-05T21:06:11.906Z,7.88
2022-12-05T21:09:00.816Z,8.52
2022-12-05T21:11:48.576Z,8.18
2022-12-05T21:14:36.963Z,8.10
2022-12-05T21:17:24.984Z,9.85
2022-12-05T21:20:13.636Z,8.77
2022-12-05T21:23:02.999Z,8.20
2022-12-05T21:25:54.078Z,8.77
2022-12-05T21:28:48.654Z,9.27
2022-12-05T21:31:38.584Z,8.30
2022-12-05T21:34:26.671Z,8.13
2022-12-05T21:37:14.745Z,8.65
2022-12-05T21:40:07.264Z,8.00
2022-12-05T21:42:57.660Z,9.35
2022-12-05T21:45:50.246Z,8.10
2022-12-05T21:48:40.725Z,8.25
2022-12-05T21:51:28.876Z,9.45
2022-12-05T21:54:17.126Z,8.27
2022-12-05T21:57:06.625Z,7.45
2022-12-05T21:59:54.706Z,7.70
2022-12-05T22:02:42.862Z,7.20
2022-12-05T22:05:30.889Z,7.80
2022-12-05T22:08:19.044Z,6.93
2022-12-05T22:11:08.311Z,7.88
2022-12-05T22:13:57.756Z,7.45
2022-12-05T22:16:45.691Z,7.55
2022-12-05T22:19:33.734Z,7.25
2022-12-05T22:22:21.671Z,7.07
2022-12-05T22:25:10.564Z,7.57
2022-12-05T22:27:58.498Z,7.00
2022-12-05T22:30:50.140Z,7.80
2022-12-05T22:33:39.224Z,7.40
2022-12-05T22:36:29.752Z,7.63
2022-12-05T22:39:17.450Z,7.20
2022-12-05T22:42:05.543Z,7.25
2022-12-05T22:44:53.417Z,7.45
2022-12-05T22:47:42.810Z,7.43
2022-12-05T22:50:30.647Z,7.20
2022-12-05T22:53:20.840Z,7.30
2022-12-05T22:56:10.909Z,6.85
2022-12-05T22:59:00.824Z,6.43
2022-12-05T23:01:48.621Z,6.93
2022-12-05T23:04:38.047Z,6.70
2022-12-05T23:07:25.835Z,6.70
2022-12-05T23:10:14.374Z,7.00
2022-12-05T23:13:02.770Z,6.50
2022-12-05T23:15:50.894Z,6.75
2022-12-05T23:18:47.582Z,6.93
2022-12-05T23:21:38.673Z,7.10
2022-12-05T23:24:26.824Z,6.45
2022-12-05T23:27:18.660Z,6.65
2022-12-05T23:30:08.028Z,7.05
2022-12-05T23:32:56.128Z,6.47
2022-12-05T23:35:44.178Z,6.47
2022-12-05T23:38:34.448Z,7.25
2022-12-05T23:41:23.531Z,6.50
2022-12-05T23:44:11.216Z,6.55
2022-12-05T23:46:59.219Z,6.40
2022-12-05T23:49:47.607Z,6.68
2022-12-05T23:52:38.291Z,6.95
2022-12-05T23:55:27.642Z,8.27
2022-12-05T23:58:15.687Z,8.40
